createdAt,value
2023-01-10T00:01:25.452Z,6.46
2023-01-10T00:03:52.464Z,6.46
2023-01-10T00:06:19.970Z,6.48
2023-01-10T00:08:46.830Z,6.46
2023-01-10T00:11:32.781Z,6.43
2023-01-10T00:13:59.980Z,6.46
2023-01-10T00:16:27.384Z,6.50
2023-01-10T00:18:54.386Z,6.47
2023-01-10T00:21:21.590Z,6.52
2023-01-10T00:23:49.197Z,6.52
2023-01-10T00:26:16.595Z,6.56
2023-01-10T00:28:43.953Z,6.58
2023-01-10T00:31:12.198Z,6.64
2023-01-10T00:33:39.419Z,6.71
2023-01-10T00:36:09.760Z,6.71
2023-01-10T00:38:36.962Z,6.75
2023-01-10T00:41:25.113Z,6.78
2023-01-10T00:43:58.043Z,6.81
2023-01-10T00:46:26.485Z,6.83
2023-01-10T00:48:53.812Z,6.86
2023-01-10T00:51:21.105Z,6.85
2023-01-10T00:53:48.010Z,6.89
2023-01-10T00:56:15.260Z,6.93
2023-01-10T00:58:43.012Z,6.96
2023-01-10T01:01:10.508Z,6.99
2023-01-10T01:03:37.445Z,6.99
2023-01-10T01:06:06.792Z,7.00
2023-01-10T01:08:34.464Z,7.04
2023-01-10T01:11:01.702Z,7.03
2023-01-10T01:13:28.756Z,6.99
2023-01-10T01:16:00.418Z,7.03
2023-01-10T01:18:28.631Z,7.09
2023-01-10T01:21:01.006Z,7.13
2023-01-10T01:23:29.202Z,7.14
2023-01-10T01:25:57.660Z,7.18
2023-01-10T01:28:25.278Z,7.16
2023-01-10T01:30:52.619Z,7.18
2023-01-10T01:33:20.895Z,7.14
2023-01-10T01:35:49.725Z,7.16
2023-01-10T01:38:17.837Z,7.13
2023-01-10T01:40:45.451Z,7.13
2023-01-10T01:43:25.782Z,7.12
2023-01-10T01:45:54.012Z,7.11
2023-01-10T01:48:34.558Z,7.14
2023-01-10T01:51:07.677Z,7.17
2023-01-10T01:53:54.568Z,7.17
2023-01-10T01:56:33.291Z,7.19
2023-01-10T01:59:09.200Z,7.19
2023-01-10T02:01:40.897Z,7.22
2023-01-10T02:04:18.777Z,7.15
2023-01-10T02:06:52.154Z,7.17
2023-01-10T02:09:30.631Z,7.16
2023-01-10T02:11:57.964Z,7.15
2023-01-10T02:14:26.648Z,7.13
2023-01-10T02:16:53.891Z,7.15
2023-01-10T02:19:48.384Z,7.15
2023-01-10T02:22:39.921Z,7.18
2023-01-10T02:25:50.027Z,7.13
2023-01-10T02:29:17.423Z,7.12
2023-01-10T02:32:11.940Z,7.13
2023-01-10T02:35:24.187Z,7.12
2023-01-10T02:38:22.190Z,7.11
2023-01-10T02:41:27.963Z,7.09
2023-01-10T02:44:18.282Z,7.14
2023-01-10T02:46:49.396Z,7.11
2023-01-10T02:49:16.352Z,7.08
2023-01-10T02:51:43.657Z,7.13
2023-01-10T02:54:18.692Z,7.13
2023-01-10T02:57:19.547Z,7.13
2023-01-10T03:00:19.956Z,7.20
2023-01-10T03:03:03.913Z,7.14
2023-01-10T03:05:45.989Z,7.19
2023-01-10T03:08:39.410Z,7.16
2023-01-10T03:11:10.149Z,7.19
2023-01-10T03:14:01.046Z,7.13
2023-01-10T03:16:32.394Z,7.20
2023-01-10T03:19:07.938Z,7.19
2023-01-10T03:21:40.877Z,7.24
2023-01-10T03:24:36.531Z,7.24
2023-01-10T03:27:41.621Z,7.27
2023-01-10T03:30:47.133Z,7.27
2023-01-10T03:33:19.189Z,7.31
2023-01-10T03:36:27.326Z,7.35
2023-01-10T03:39:21.606Z,7.38
2023-01-10T03:42:13.609Z,7.37
2023-01-10T03:45:00.313Z,7.36
2023-01-10T03:47:46.488Z,7.39
2023-01-10T03:50:20.192Z,7.38
2023-01-10T03:52:47.798Z,7.39
2023-01-10T03:55:22.886Z,7.40
2023-01-10T03:57:50.088Z,7.37
2023-01-10T04:00:18.268Z,7.38
2023-01-10T04:02:45.929Z,7.39
2023-01-10T04:05:13.450Z,7.38
2023-01-10T04:07:40.946Z,7.33
2023-01-10T04:10:09.349Z,7.31
2023-01-10T04:12:36.808Z,7.33
2023-01-10T04:15:04.755Z,7.33
2023-01-10T04:17:32.012Z,7.32
2023-01-10T04:19:58.902Z,7.30
2023-01-10T04:22:26.202Z,7.30
2023-01-10T04:24:54.448Z,7.29
2023-01-10T04:27:21.756Z,7.32
2023-01-10T04:29:48.771Z,7.32
2023-01-10T04:32:16.269Z,7.35
2023-01-10T04:34:43.193Z,7.36
2023-01-10T04:37:10.446Z,7.37
2023-01-10T04:39:37.308Z,7.36
2023-01-10T04:42:04.564Z,7.36
2023-01-10T04:44:31.402Z,7.36
2023-01-10T04:46:58.654Z,7.35
2023-01-10T04:49:25.563Z,7.35
2023-01-10T04:51:52.829Z,7.37
2023-01-10T04:54:23.473Z,7.35
2023-01-10T04:56:50.942Z,7.36
2023-01-10T04:59:18.004Z,7.37
2023-01-10T05:01:45.284Z,7.37
2023-01-10T05:04:13.417Z,7.32
2023-01-10T05:06:40.689Z,7.31
2023-01-10T05:09:09.223Z,7.30
2023-01-10T05:11:36.724Z,7.34
2023-01-10T05:14:03.625Z,7.35
2023-01-10T05:16:30.961Z,7.34
2023-01-10T05:18:57.875Z,7.37
2023-01-10T05:21:25.302Z,7.37
2023-01-10T05:23:52.219Z,7.35
2023-01-10T05:26:23.500Z,7.35
2023-01-10T05:28:50.844Z,7.36
2023-01-10T05:31:20.378Z,7.30
2023-01-10T05:33:50.363Z,7.28
2023-01-10T05:36:19.268Z,7.26
2023-01-10T05:38:46.515Z,7.25
2023-01-10T05:41:14.317Z,7.26
2023-01-10T05:43:41.568Z,7.28
2023-01-10T05:46:09.568Z,7.28
2023-01-10T05:48:36.726Z,7.33
2023-01-10T05:51:04.151Z,7.31
2023-01-10T05:53:31.192Z,7.32
2023-01-10T05:56:01.504Z,7.34
2023-01-10T05:58:29.852Z,7.28
2023-01-10T06:00:58.427Z,7.31
2023-01-10T06:03:26.712Z,7.33
2023-01-10T06:05:55.959Z,7.30
2023-01-10T06:08:24.253Z,7.29
2023-01-10T06:10:52.066Z,7.33
2023-01-10T06:13:19.131Z,7.33
2023-01-10T06:15:47.078Z,7.35
2023-01-10T06:18:15.118Z,7.36
2023-01-10T06:20:44.346Z,7.38
2023-01-10T06:23:12.417Z,7.39
2023-01-10T06:25:42.828Z,7.44
2023-01-10T06:28:13.246Z,7.41
2023-01-10T06:30:44.699Z,7.37
2023-01-10T06:33:12.517Z,7.37
2023-01-10T06:35:40.163Z,7.37
2023-01-10T06:38:07.129Z,7.38
2023-01-10T06:40:34.344Z,7.37
2023-01-10T06:43:01.382Z,7.32
2023-01-10T06:45:28.813Z,7.35
2023-01-10T06:47:56.011Z,7.34
2023-01-10T06:50:23.800Z,7.34
2023-01-10T06:52:59.408Z,7.34
2023-01-10T06:55:28.263Z,7.37
2023-01-10T06:58:03.834Z,7.39
2023-01-10T07:00:32.409Z,7.34
2023-01-10T07:03:01.363Z,7.36
2023-01-10T07:05:29.776Z,7.41
2023-01-10T07:07:58.834Z,7.42
2023-01-10T07:10:26.892Z,7.43
2023-01-10T07:12:58.757Z,7.42
2023-01-10T07:15:29.088Z,7.42
2023-01-10T07:17:59.993Z,7.35
2023-01-10T07:20:28.815Z,7.32
2023-01-10T07:23:00.654Z,7.31
2023-01-10T07:25:30.185Z,7.27
2023-01-10T07:27:57.262Z,7.28
2023-01-10T07:30:26.019Z,7.26
2023-01-10T07:32:56.088Z,7.27
2023-01-10T07:35:25.116Z,7.30
2023-01-10T07:37:52.110Z,7.25
2023-01-10T07:40:19.546Z,7.22
2023-01-10T07:42:46.448Z,7.25
2023-01-10T07:45:13.618Z,7.28
2023-01-10T07:47:40.627Z,7.31
2023-01-10T07:50:08.809Z,7.36
2023-01-10T07:52:35.828Z,7.42
2023-01-10T07:55:03.222Z,7.46
2023-01-10T07:57:30.186Z,7.50
2023-01-10T07:59:57.596Z,7.44
2023-01-10T08:02:24.714Z,7.50
2023-01-10T08:04:52.037Z,7.53
2023-01-10T08:07:18.990Z,7.56
2023-01-10T08:09:46.340Z,7.57
2023-01-10T08:12:13.747Z,7.62
2023-01-10T08:14:40.986Z,7.65
2023-01-10T08:17:08.009Z,7.65
2023-01-10T08:19:35.264Z,7.66
2023-01-10T08:22:03.184Z,7.61
2023-01-10T08:24:30.338Z,7.60
2023-01-10T08:27:01.450Z,7.58
2023-01-10T08:29:29.928Z,7.56
2023-01-10T08:31:57.262Z,7.57
2023-01-10T08:34:24.728Z,7.59
2023-01-10T08:36:53.705Z,7.57
2023-01-10T08:39:22.730Z,7.59
2023-01-10T08:41:49.896Z,7.57
2023-01-10T08:44:17.095Z,7.54
2023-01-10T08:46:44.204Z,7.49
2023-01-10T08:49:11.870Z,7.42
2023-01-10T08:51:38.797Z,7.41
2023-01-10T08:54:06.273Z,7.40
2023-01-10T08:56:33.249Z,7.39
2023-01-10T08:59:00.404Z,7.30
2023-01-10T09:01:27.407Z,7.32
2023-01-10T09:03:55.143Z,7.31
2023-01-10T09:06:22.125Z,7.32
2023-01-10T09:08:49.458Z,7.30
2023-01-10T09:11:16.534Z,7.32
2023-01-10T09:13:43.811Z,7.36
2023-01-10T09:16:11.141Z,7.37
2023-01-10T09:18:38.576Z,7.41
2023-01-10T09:21:05.813Z,7.46
2023-01-10T09:23:34.398Z,7.54
2023-01-10T09:26:03.486Z,7.55
2023-01-10T09:28:30.684Z,7.56
2023-01-10T09:30:57.674Z,7.56
2023-01-10T09:33:26.530Z,7.64
2023-01-10T09:35:59.014Z,7.69
2023-01-10T09:38:27.806Z,7.70
2023-01-10T09:41:06.696Z,7.80
2023-01-10T09:44:02.664Z,7.81
2023-01-10T09:46:52.572Z,7.69
2023-01-10T09:49:49.122Z,7.78
2023-01-10T09:52:27.435Z,7.90
2023-01-10T09:55:00.242Z,8.01
2023-01-10T09:57:27.461Z,7.98
2023-01-10T09:59:54.979Z,8.06
2023-01-10T10:02:39.258Z,8.08
2023-01-10T10:05:25.640Z,8.10
2023-01-10T10:08:00.253Z,8.02
2023-01-10T10:10:39.246Z,8.00
2023-01-10T10:13:33.649Z,7.98
2023-01-10T10:17:09.053Z,7.97
2023-01-10T10:19:58.113Z,7.92
2023-01-10T10:23:09.013Z,7.94
2023-01-10T10:25:56.931Z,7.97
2023-01-10T10:28:55.495Z,7.98
2023-01-10T10:31:55.454Z,7.93
2023-01-10T10:34:46.937Z,7.99
2023-01-10T10:37:33.646Z,7.99
2023-01-10T10:40:11.710Z,7.96
2023-01-10T10:42:43.611Z,8.01
2023-01-10T10:45:41.731Z,7.98
2023-01-10T10:48:31.092Z,8.04
2023-01-10T10:51:21.441Z,8.05
2023-01-10T10:53:48.395Z,8.15
2023-01-10T10:56:21.788Z,8.14
2023-01-10T10:58:53.929Z,8.15
2023-01-10T11:01:25.564Z,8.21
2023-01-10T11:04:02.360Z,8.23
2023-01-10T11:06:35.565Z,8.26
2023-01-10T11:09:06.844Z,8.29
2023-01-10T11:11:45.124Z,8.36
2023-01-10T11:14:13.637Z,8.44
2023-01-10T11:16:45.026Z,8.34
2023-01-10T11:19:26.312Z,8.39
2023-01-10T11:22:03.718Z,8.49
2023-01-10T11:24:52.643Z,8.45
2023-01-10T11:27:29.406Z,8.44
2023-01-10T11:30:03.257Z,8.46
2023-01-10T11:32:48.520Z,8.49
2023-01-10T11:35:39.127Z,8.53
2023-01-10T11:38:24.650Z,8.57
2023-01-10T11:41:20.499Z,8.47
2023-01-10T11:43:47.815Z,8.51
2023-01-10T11:46:21.231Z,8.58
2023-01-10T11:49:06.925Z,8.59
2023-01-10T11:51:45.890Z,8.41
2023-01-10T11:54:25.728Z,8.53
2023-01-10T11:57:07.394Z,8.61
2023-01-10T11:59:35.141Z,8.55
2023-01-10T12:02:17.788Z,8.64
2023-01-10T12:04:48.579Z,8.53
2023-01-10T12:07:15.591Z,8.60
2023-01-10T12:10:03.776Z,8.51
2023-01-10T12:12:36.321Z,8.49
2023-01-10T12:15:30.598Z,8.44
2023-01-10T12:18:01.778Z,8.58
2023-01-10T12:20:37.194Z,8.63
2023-01-10T12:23:17.193Z,8.72
2023-01-10T12:25:47.033Z,8.67
2023-01-10T12:28:25.571Z,8.69
2023-01-10T12:30:56.407Z,8.77
2023-01-10T12:33:31.615Z,8.68
2023-01-10T12:36:26.688Z,8.62
2023-01-10T12:39:33.497Z,8.49
2023-01-10T12:42:21.852Z,8.50
2023-01-10T12:44:58.388Z,8.46
2023-01-10T12:47:25.594Z,8.57
2023-01-10T12:49:58.391Z,8.46
2023-01-10T12:52:45.788Z,8.45
2023-01-10T12:55:18.277Z,8.57
2023-01-10T12:57:53.431Z,8.56
2023-01-10T13:00:47.787Z,8.44
2023-01-10T13:03:29.407Z,8.55
2023-01-10T13:05:59.128Z,8.58
2023-01-10T13:08:33.199Z,8.51
2023-01-10T13:11:02.594Z,8.57
2023-01-10T13:13:55.315Z,8.38
2023-01-10T13:16:28.325Z,8.40
2023-01-10T13:19:10.419Z,8.45
2023-01-10T13:21:43.106Z,8.43
2023-01-10T13:24:18.195Z,8.25
2023-01-10T13:27:04.026Z,8.29
2023-01-10T13:29:51.667Z,8.22
2023-01-10T13:32:28.919Z,8.25
2023-01-10T13:35:16.315Z,8.23
2023-01-10T13:37:52.561Z,8.26
2023-01-10T13:40:30.913Z,8.46
2023-01-10T13:43:37.069Z,8.49
2023-01-10T13:46:16.759Z,8.49
2023-01-10T13:48:49.732Z,8.48
2023-01-10T13:51:23.118Z,8.42
2023-01-10T13:53:53.033Z,8.43
2023-01-10T13:56:42.017Z,8.43
2023-01-10T13:59:33.037Z,8.35
2023-01-10T14:02:21.294Z,8.35
2023-01-10T14:05:00.400Z,8.44
2023-01-10T14:07:35.535Z,8.45
2023-01-10T14:10:19.996Z,8.44
2023-01-10T14:13:09.200Z,8.44
2023-01-10T14:15:46.205Z,8.37
2023-01-10T14:18:25.923Z,8.42
2023-01-10T14:21:01.195Z,8.34
2023-01-10T14:23:43.065Z,8.34
2023-01-10T14:26:34.551Z,8.31
2023-01-10T14:29:12.680Z,8.36
2023-01-10T14:31:47.287Z,8.40
2023-01-10T14:34:25.731Z,8.41
2023-01-10T14:37:09.537Z,8.36
2023-01-10T14:39:37.682Z,8.36
2023-01-10T14:42:16.021Z,8.37
2023-01-10T14:45:19.715Z,8.43
2023-01-10T14:47:48.970Z,8.38
2023-01-10T14:50:30.129Z,8.46
2023-01-10T14:52:57.157Z,8.45
2023-01-10T14:55:24.704Z,8.46
2023-01-10T14:58:01.273Z,8.45
2023-01-10T15:00:33.016Z,8.42
2023-01-10T15:03:04.278Z,8.38
2023-01-10T15:05:44.646Z,8.35
2023-01-10T15:08:26.692Z,8.31
2023-01-10T15:11:02.278Z,8.18
2023-01-10T15:13:35.611Z,8.20
2023-01-10T15:16:05.632Z,8.22
2023-01-10T15:18:45.775Z,8.19
2023-01-10T15:21:16.181Z,8.17
2023-01-10T15:23:46.640Z,8.17
2023-01-10T15:26:21.448Z,8.16
2023-01-10T15:29:13.181Z,8.15
2023-01-10T15:31:42.603Z,8.14
2023-01-10T15:34:26.309Z,8.10
2023-01-10T15:37:00.440Z,8.07
2023-01-10T15:39:33.751Z,8.05
2023-01-10T15:42:06.084Z,8.05
2023-01-10T15:44:52.742Z,8.05
2023-01-10T15:47:40.464Z,8.07
2023-01-10T15:50:28.551Z,8.07
2023-01-10T15:53:03.675Z,8.07
2023-01-10T15:55:39.633Z,8.05
2023-01-10T15:58:30.367Z,8.01
2023-01-10T16:01:00.702Z,7.98
2023-01-10T16:03:49.690Z,7.97
2023-01-10T16:06:30.109Z,7.94
2023-01-10T16:09:03.206Z,7.95
2023-01-10T16:12:05.230Z,7.94
2023-01-10T16:14:36.082Z,7.91
2023-01-10T16:17:04.911Z,7.90
2023-01-10T16:19:32.517Z,7.89
2023-01-10T16:22:01.919Z,7.88
2023-01-10T16:24:34.376Z,7.85
2023-01-10T16:27:05.926Z,7.82
2023-01-10T16:29:34.513Z,7.84
2023-01-10T16:32:01.550Z,7.84
2023-01-10T16:34:28.982Z,7.85
2023-01-10T16:36:55.912Z,7.86
2023-01-10T16:39:24.036Z,7.85
2023-01-10T16:42:09.999Z,7.87
2023-01-10T16:44:37.245Z,7.89
2023-01-10T16:47:07.116Z,7.87
2023-01-10T16:49:34.536Z,7.88
2023-01-10T16:52:01.561Z,7.91
2023-01-10T16:54:28.845Z,7.90
2023-01-10T16:56:55.877Z,7.91
2023-01-10T16:59:23.508Z,7.91
2023-01-10T17:01:57.374Z,7.85
2023-01-10T17:04:30.224Z,7.84
2023-01-10T17:06:57.259Z,7.84
2023-01-10T17:09:29.448Z,7.76
2023-01-10T17:12:03.601Z,7.76
2023-01-10T17:14:36.563Z,7.76
2023-01-10T17:17:04.622Z,7.72
2023-01-10T17:19:32.275Z,7.73
2023-01-10T17:22:00.268Z,7.68
2023-01-10T17:24:29.747Z,7.65
2023-01-10T17:26:57.304Z,7.61
2023-01-10T17:29:25.476Z,7.53
2023-01-10T17:31:53.144Z,7.46
2023-01-10T17:34:20.817Z,7.44
2023-01-10T17:36:48.092Z,7.37
2023-01-10T17:39:15.387Z,7.35
2023-01-10T17:41:42.758Z,7.38
2023-01-10T17:44:10.096Z,7.34
2023-01-10T17:46:37.199Z,7.34
2023-01-10T17:49:04.480Z,7.31
2023-01-10T17:51:36.261Z,7.30
2023-01-10T17:54:03.815Z,7.25
2023-01-10T17:56:32.326Z,7.25
2023-01-10T17:58:59.535Z,7.21
2023-01-10T18:01:27.005Z,7.18
2023-01-10T18:03:54.396Z,7.14
2023-01-10T18:06:25.608Z,7.12
2023-01-10T18:08:54.163Z,7.09
2023-01-10T18:11:25.262Z,7.10
2023-01-10T18:13:53.582Z,7.02
2023-01-10T18:16:26.989Z,7.01
2023-01-10T18:18:56.483Z,7.02
2023-01-10T18:21:38.318Z,6.98
2023-01-10T18:24:06.137Z,6.97
2023-01-10T18:26:33.474Z,6.87
2023-01-10T18:29:00.919Z,6.92
2023-01-10T18:31:29.903Z,6.90
2023-01-10T18:33:58.411Z,6.88
2023-01-10T18:36:25.631Z,6.81
2023-01-10T18:38:57.351Z,6.80
2023-01-10T18:41:24.373Z,6.72
2023-01-10T18:43:52.208Z,6.72
2023-01-10T18:46:22.748Z,6.72
2023-01-10T18:48:53.381Z,6.70
2023-01-10T18:51:22.912Z,6.75
2023-01-10T18:53:53.355Z,6.75
2023-01-10T18:56:20.698Z,6.74
2023-01-10T18:58:49.046Z,6.68
2023-01-10T19:01:24.501Z,6.72
2023-01-10T19:03:52.086Z,6.65
2023-01-10T19:06:22.832Z,6.61
2023-01-10T19:08:52.388Z,6.54
2023-01-10T19:11:20.497Z,6.45
2023-01-10T19:13:54.335Z,6.38
2023-01-10T19:16:32.232Z,6.26
2023-01-10T19:19:05.446Z,6.21
2023-01-10T19:21:34.587Z,6.15
2023-01-10T19:24:15.474Z,6.05
2023-01-10T19:26:42.524Z,6.08
2023-01-10T19:29:14.507Z,6.10
2023-01-10T19:31:44.753Z,6.08
2023-01-10T19:34:16.387Z,6.03
2023-01-10T19:36:44.924Z,6.06
2023-01-10T19:39:14.635Z,6.03
2023-01-10T19:41:42.436Z,6.01
2023-01-10T19:44:16.922Z,5.96
2023-01-10T19:46:45.454Z,5.90
2023-01-10T19:49:17.822Z,5.79
2023-01-10T19:51:56.194Z,5.72
2023-01-10T19:54:25.744Z,5.64
2023-01-10T19:56:59.495Z,5.60
2023-01-10T19:59:34.722Z,5.55
2023-01-10T20:02:02.459Z,5.50
2023-01-10T20:04:31.680Z,5.50
2023-01-10T20:06:59.431Z,5.38
2023-01-10T20:09:28.835Z,5.32
2023-01-10T20:11:56.343Z,5.31
2023-01-10T20:14:24.981Z,5.28
2023-01-10T20:16:53.311Z,5.30
2023-01-10T20:19:21.782Z,5.27
2023-01-10T20:21:48.974Z,5.31
2023-01-10T20:24:21.808Z,5.32
2023-01-10T20:26:51.604Z,5.35
2023-01-10T20:29:20.188Z,5.33
2023-01-10T20:31:52.814Z,5.38
2023-01-10T20:34:22.786Z,5.41
2023-01-10T20:36:59.429Z,5.38
2023-01-10T20:39:26.811Z,5.29
2023-01-10T20:41:54.180Z,5.25
2023-01-10T20:44:21.586Z,5.22
2023-01-10T20:46:48.953Z,5.23
2023-01-10T20:49:16.304Z,5.28
2023-01-10T20:51:43.496Z,5.30
2023-01-10T20:54:11.997Z,5.29
2023-01-10T20:56:39.379Z,5.28
2023-01-10T20:59:06.997Z,5.26
2023-01-10T21:01:35.749Z,5.20
2023-01-10T21:04:08.001Z,5.18
2023-01-10T21:06:36.820Z,5.21
2023-01-10T21:09:05.605Z,5.19
2023-01-10T21:11:38.880Z,5.18
2023-01-10T21:14:14.874Z,5.18
2023-01-10T21:16:41.822Z,5.20
2023-01-10T21:19:13.475Z,5.23
2023-01-10T21:21:42.262Z,5.26
2023-01-10T21:24:09.985Z,5.21
2023-01-10T21:26:37.702Z,5.18
2023-01-10T21:29:04.988Z,5.13
2023-01-10T21:31:32.272Z,5.14
2023-01-10T21:33:59.645Z,5.12
2023-01-10T21:36:26.607Z,5.12
2023-01-10T21:38:53.900Z,5.13
2023-01-10T21:41:39.768Z,5.16
2023-01-10T21:44:08.521Z,5.20
2023-01-10T21:46:36.328Z,5.19
2023-01-10T21:49:05.347Z,5.26
2023-01-10T21:51:32.449Z,5.21
2023-01-10T21:53:59.874Z,5.23
2023-01-10T21:56:27.558Z,5.24
2023-01-10T21:58:54.860Z,5.22
2023-01-10T22:01:21.871Z,5.23
2023-01-10T22:03:50.523Z,5.23
2023-01-10T22:06:18.175Z,5.26
2023-01-10T22:08:45.524Z,5.23
2023-01-10T22:11:12.492Z,5.22
2023-01-10T22:13:40.101Z,5.26
2023-01-10T22:16:07.681Z,5.29
2023-01-10T22:18:35.169Z,5.33
2023-01-10T22:21:02.410Z,5.35
2023-01-10T22:23:31.032Z,5.36
2023-01-10T22:26:11.378Z,5.37
2023-01-10T22:28:38.925Z,5.40
2023-01-10T22:31:06.447Z,5.36
2023-01-10T22:33:37.555Z,5.32
2023-01-10T22:36:14.511Z,5.30
2023-01-10T22:38:42.547Z,5.23
2023-01-10T22:41:13.317Z,5.19
2023-01-10T22:43:40.931Z,5.14
2023-01-10T22:46:09.676Z,5.13
2023-01-10T22:48:38.653Z,5.12
2023-01-10T22:51:05.937Z,5.08
2023-01-10T22:53:34.376Z,5.00
2023-01-10T22:56:03.698Z,4.95
2023-01-10T22:58:31.253Z,4.95
2023-01-10T23:00:58.436Z,4.92
2023-01-10T23:03:25.787Z,4.93
2023-01-10T23:05:57.373Z,4.92
2023-01-10T23:08:26.853Z,4.89
2023-01-10T23:10:54.545Z,4.89
2023-01-10T23:13:24.240Z,4.89
2023-01-10T23:16:13.376Z,4.85
2023-01-10T23:18:40.761Z,4.79
2023-01-10T23:21:08.989Z,4.74
2023-01-10T23:23:36.700Z,4.73
2023-01-10T23:26:07.048Z,4.57
2023-01-10T23:28:42.649Z,4.53
2023-01-10T23:31:09.721Z,4.45
2023-01-10T23:33:37.339Z,4.40
2023-01-10T23:36:04.723Z,4.43
2023-01-10T23:38:31.946Z,4.51
2023-01-10T23:40:59.393Z,4.47
2023-01-10T23:43:26.590Z,4.44
2023-01-10T23:45:53.580Z,4.35
2023-01-10T23:48:21.451Z,4.41
2023-01-10T23:50:51.377Z,4.46
2023-01-10T23:53:19.788Z,4.42
2023-01-10T23:55:47.028Z,4.46
2023-01-10T23:58:15.390Z,4.45
